Time;durP1;ratioP1;P1;durP2;ratioP2;P2;SDS_P1;SDS_P2;PMS_P1;PMS_P2;Temp;Humidity;BMP_temperature;BMP_pressure;BME280_temperature;BME280_humidity;BME280_pressure;Samples;Min_cycle;Max_cycle;Signal;HPM_P1;HPM_P2
2023/01/17 00:01:06;;;;;;;;;;;3.50;99.90;;;;;;5074556;28;19908;-80
2023/01/17 00:03:32;;;;;;;;;;;3.40;99.90;;;;;;5075387;28;19905;-80
2023/01/17 00:11:26;;;;;;;;;;;3.20;99.90;;;;;;5075045;28;20313;-78
2023/01/17 00:13:51;;;;;;;;;;;3.20;99.90;;;;;;5074952;28;19950;-78
2023/01/17 00:16:17;;;;;;;;;;;3.10;99.90;;;;;;5075083;28;20313;-80
2023/01/17 00:26:01;;;;;;;;;;;2.80;99.90;;;;;;5075524;28;19904;-80
2023/01/17 01:35:55;;;;;;;;;;;2.00;99.90;;;;;;5077289;28;19916;-80
2023/01/17 01:38:24;;;;;;;;;;;1.90;99.90;;;;;;5076418;28;19912;-80
2023/01/17 01:40:53;;;;;;;;;;;1.90;99.90;;;;;;5077398;28;19912;-79
2023/01/17 01:43:21;;;;;;;;;;;2.00;99.90;;;;;;5077638;28;20330;-78
2023/01/17 01:45:52;;;;;;;;;;;2.20;99.90;;;;;;5070651;28;20256;-72
2023/01/17 01:48:18;;;;;;;;;;;2.40;99.90;;;;;;5077492;28;19939;-78
2023/01/17 01:50:44;;;;;;;;;;;2.50;99.90;;;;;;5077273;28;19948;-79
2023/01/17 01:53:10;;;;;;;;;;;2.50;99.90;;;;;;5077610;28;19912;-86
2023/01/17 01:55:39;;;;;;;;;;;2.50;99.90;;;;;;5076548;28;20294;-74
2023/01/17 01:58:13;;;;;;;;;;;2.40;99.90;;;;;;5076979;28;19910;-83
2023/01/17 02:00:39;;;;;;;;;;;2.40;99.90;;;;;;5075256;28;19918;-80
2023/01/17 02:03:07;;;;;;;;;;;2.40;99.90;;;;;;5070612;28;20002;-80
2023/01/17 02:05:32;;;;;;;;;;;2.40;99.90;;;;;;5061182;28;20249;-80
2023/01/17 02:08:03;;;;;;;;;;;2.50;99.90;;;;;;5065915;28;19904;-80
2023/01/17 02:10:32;;;;;;;;;;;2.50;99.90;;;;;;5077431;28;19942;-79
2023/01/17 02:12:58;;;;;;;;;;;2.40;99.90;;;;;;5076373;28;19979;-79
2023/01/17 02:15:31;;;;;;;;;;;2.40;99.90;;;;;;5063894;28;19944;-80
2023/01/17 02:17:56;;;;;;;;;;;2.30;99.90;;;;;;5063937;28;19905;-78
2023/01/17 02:20:25;;;;;;;;;;;2.20;99.90;;;;;;5075676;28;19905;-80
2023/01/17 02:22:50;;;;;;;;;;;2.10;99.90;;;;;;5077201;28;19908;-78
2023/01/17 02:25:25;;;;;;;;;;;2.10;99.90;;;;;;5076727;28;19910;-80
2023/01/17 02:28:09;;;;;;;;;;;2.10;99.90;;;;;;5077279;28;19908;-82
2023/01/17 02:30:36;;;;;;;;;;;2.10;99.90;;;;;;5071160;28;19905;-82
2023/01/17 02:33:04;;;;;;;;;;;2.10;99.90;;;;;;5068473;28;19998;-80
2023/01/17 02:35:39;;;;;;;;;;;2.10;99.90;;;;;;5074788;28;20200;-78
2023/01/17 02:38:14;;;;;;;;;;;2.10;99.90;;;;;;5066372;28;19905;-79
2023/01/17 02:41:04;;;;;;;;;;;2.10;99.90;;;;;;5073759;28;19912;-78
2023/01/17 02:43:30;;;;;;;;;;;2.00;99.90;;;;;;5069028;28;19952;-80
2023/01/17 02:45:55;;;;;;;;;;;2.00;99.90;;;;;;5071090;28;20569;-77
2023/01/17 02:48:23;;;;;;;;;;;1.90;99.90;;;;;;5066998;28;19911;-79
2023/01/17 02:51:02;;;;;;;;;;;1.90;99.90;;;;;;5058975;28;19908;-79
2023/01/17 02:53:50;;;;;;;;;;;1.90;99.90;;;;;;5067430;28;19994;-79
2023/01/17 02:56:21;;;;;;;;;;;1.90;99.90;;;;;;5061293;28;19916;-79
2023/01/17 02:59:06;;;;;;;;;;;1.80;99.90;;;;;;5074986;28;19916;-78
2023/01/17 03:01:33;;;;;;;;;;;1.80;99.90;;;;;;5062549;28;19947;-81
2023/01/17 03:04:02;;;;;;;;;;;1.70;99.90;;;;;;5075163;28;19908;-79
2023/01/17 03:06:31;;;;;;;;;;;1.60;99.90;;;;;;5062581;28;19908;-80
2023/01/17 03:08:56;;;;;;;;;;;1.60;99.90;;;;;;5076332;28;19905;-79
2023/01/17 03:11:22;;;;;;;;;;;1.60;99.90;;;;;;5074229;28;20326;-79
2023/01/17 03:13:52;;;;;;;;;;;1.60;99.90;;;;;;5076052;28;19957;-78
2023/01/17 03:16:19;;;;;;;;;;;1.60;99.90;;;;;;5075343;28;19916;-79
2023/01/17 03:18:45;;;;;;;;;;;1.50;99.90;;;;;;5067882;28;20480;-78
2023/01/17 03:21:11;;;;;;;;;;;1.50;99.90;;;;;;5055750;28;19958;-79
2023/01/17 03:23:37;;;;;;;;;;;1.50;99.90;;;;;;5069622;28;20329;-78
2023/01/17 03:26:02;;;;;;;;;;;1.50;99.90;;;;;;5067744;28;20348;-79
2023/01/17 03:28:28;;;;;;;;;;;1.50;99.90;;;;;;5070537;28;20319;-79
2023/01/17 03:30:53;;;;;;;;;;;1.40;99.90;;;;;;5065819;28;19904;-79
2023/01/17 03:33:19;;;;;;;;;;;1.30;99.90;;;;;;5060978;28;19909;-79
2023/01/17 03:35:44;;;;;;;;;;;1.20;99.90;;;;;;5067467;28;19917;-79
2023/01/17 03:38:10;;;;;;;;;;;1.20;99.90;;;;;;5059785;28;20375;-78
2023/01/17 03:40:36;;;;;;;;;;;1.10;99.90;;;;;;5075550;28;20207;-73
2023/01/17 03:43:01;;;;;;;;;;;1.10;99.90;;;;;;5063558;28;19905;-79
2023/01/17 03:45:27;;;;;;;;;;;1.00;99.90;;;;;;5056359;28;19904;-79
2023/01/17 03:47:52;;;;;;;;;;;1.00;99.90;;;;;;5065551;28;19904;-79
2023/01/17 03:50:18;;;;;;;;;;;0.90;99.90;;;;;;5074802;28;19904;-79
2023/01/17 03:52:44;;;;;;;;;;;0.80;99.90;;;;;;5067525;28;19950;-80
2023/01/17 03:55:09;;;;;;;;;;;0.80;99.90;;;;;;5057175;28;19912;-79
2023/01/17 03:57:35;;;;;;;;;;;0.70;99.90;;;;;;5074772;28;20171;-80
2023/01/17 04:00:01;;;;;;;;;;;0.60;99.90;;;;;;5062599;28;19923;-80
2023/01/17 04:02:26;;;;;;;;;;;0.60;99.90;;;;;;5058600;28;20375;-73
2023/01/17 04:04:52;;;;;;;;;;;0.60;99.90;;;;;;5065521;28;19908;-80
2023/01/17 04:07:17;;;;;;;;;;;0.50;99.90;;;;;;5067480;28;19912;-79
2023/01/17 04:09:43;;;;;;;;;;;0.50;99.90;;;;;;5074146;28;19904;-80
2023/01/17 04:12:08;;;;;;;;;;;0.50;99.90;;;;;;5075531;28;19927;-79
2023/01/17 04:14:34;;;;;;;;;;;0.50;99.90;;;;;;5069989;28;20298;-79
2023/01/17 04:17:00;;;;;;;;;;;0.50;99.90;;;;;;5074930;28;19909;-80
2023/01/17 04:19:26;;;;;;;;;;;0.50;99.90;;;;;;5074971;28;19915;-77
2023/01/17 04:21:51;;;;;;;;;;;0.50;99.90;;;;;;5074698;28;19904;-72
2023/01/17 04:24:17;;;;;;;;;;;0.60;99.90;;;;;;5075190;28;19991;-78
2023/01/17 04:26:42;;;;;;;;;;;0.70;99.90;;;;;;5074288;28;19940;-80
2023/01/17 04:29:08;;;;;;;;;;;0.70;99.90;;;;;;5074979;28;20007;-79
2023/01/17 04:31:33;;;;;;;;;;;0.70;99.90;;;;;;5072859;28;19950;-79
2023/01/17 04:33:59;;;;;;;;;;;0.70;99.90;;;;;;5075038;28;19978;-79
2023/01/17 04:36:24;;;;;;;;;;;0.70;99.90;;;;;;5073129;28;19912;-80
2023/01/17 04:38:50;;;;;;;;;;;0.70;99.90;;;;;;5074511;28;19974;-79
2023/01/17 04:41:15;;;;;;;;;;;0.70;99.90;;;;;;5074684;28;20241;-75
2023/01/17 04:43:41;;;;;;;;;;;0.70;99.90;;;;;;5074406;28;19912;-79
2023/01/17 04:46:09;;;;;;;;;;;0.70;99.90;;;;;;5073706;28;20210;-78
2023/01/17 04:48:35;;;;;;;;;;;0.60;99.90;;;;;;5074313;28;19995;-79
2023/01/17 04:51:01;;;;;;;;;;;0.60;99.90;;;;;;5071710;28;19991;-79
2023/01/17 04:53:26;;;;;;;;;;;0.50;99.90;;;;;;5073318;28;20278;-72
2023/01/17 04:55:52;;;;;;;;;;;0.40;99.90;;;;;;5074382;28;20015;-75
2023/01/17 04:58:18;;;;;;;;;;;0.40;99.90;;;;;;5074703;28;19911;-79
2023/01/17 05:00:43;;;;;;;;;;;0.40;99.90;;;;;;5074144;28;20317;-79
2023/01/17 05:03:09;;;;;;;;;;;0.30;99.90;;;;;;5072795;28;19954;-78
2023/01/17 05:05:34;;;;;;;;;;;0.30;99.90;;;;;;5074158;28;19908;-79
2023/01/17 05:08:00;;;;;;;;;;;0.30;99.90;;;;;;5072394;28;19908;-72
2023/01/17 05:10:26;;;;;;;;;;;0.30;99.90;;;;;;5074699;28;19919;-75
2023/01/17 05:12:52;;;;;;;;;;;0.30;99.90;;;;;;5062857;28;20320;-79
2023/01/17 05:15:17;;;;;;;;;;;0.30;99.90;;;;;;5070791;28;20018;-78
2023/01/17 05:17:43;;;;;;;;;;;0.30;99.90;;;;;;5077177;28;20319;-80
2023/01/17 05:20:09;;;;;;;;;;;0.20;99.90;;;;;;5063938;28;20245;-79
2023/01/17 05:22:34;;;;;;;;;;;0.20;99.90;;;;;;5077891;28;20341;-79
2023/01/17 05:25:00;;;;;;;;;;;0.20;99.90;;;;;;5063969;28;20227;-73
2023/01/17 05:27:26;;;;;;;;;;;0.10;99.90;;;;;;5068416;28;19995;-76
2023/01/17 05:29:51;;;;;;;;;;;0.20;99.90;;;;;;5074491;28;19904;-79
2023/01/17 05:32:17;;;;;;;;;;;0.10;99.90;;;;;;5078009;28;20265;-72
2023/01/17 05:34:42;;;;;;;;;;;0.10;99.90;;;;;;5064261;28;19958;-80
2023/01/17 05:37:08;;;;;;;;;;;0.10;99.90;;;;;;5057166;28;20235;-79
2023/01/17 05:39:34;;;;;;;;;;;0.10;99.90;;;;;;5058114;28;20295;-79
2023/01/17 05:42:00;;;;;;;;;;;0.10;99.90;;;;;;5074678;28;20354;-77
2023/01/17 05:44:26;;;;;;;;;;;0.20;99.90;;;;;;5077983;28;19913;-81
2023/01/17 05:46:52;;;;;;;;;;;0.20;99.90;;;;;;5062128;28;19909;-79
2023/01/17 05:49:18;;;;;;;;;;;0.20;99.90;;;;;;5071591;28;19991;-79
2023/01/17 05:51:43;;;;;;;;;;;0.20;99.90;;;;;;5072877;28;20008;-79
2023/01/17 05:54:09;;;;;;;;;;;0.20;99.90;;;;;;5069740;28;19966;-79
2023/01/17 05:56:35;;;;;;;;;;;0.20;99.90;;;;;;5071908;28;19920;-79
2023/01/17 05:59:00;;;;;;;;;;;0.20;99.90;;;;;;5075400;28;20254;-79
2023/01/17 06:01:26;;;;;;;;;;;0.20;99.90;;;;;;5077537;28;19909;-78
2023/01/17 06:03:51;;;;;;;;;;;0.30;99.90;;;;;;5076927;28;20318;-81
2023/01/17 06:06:17;;;;;;;;;;;0.40;99.90;;;;;;5077480;28;20205;-72
2023/01/17 06:08:42;;;;;;;;;;;0.40;99.90;;;;;;5075258;28;20375;-78
2023/01/17 06:11:08;;;;;;;;;;;0.40;99.90;;;;;;5076141;28;19904;-79
2023/01/17 06:13:33;;;;;;;;;;;0.40;99.90;;;;;;5077483;28;19908;-79
2023/01/17 06:16:02;;;;;;;;;;;0.40;99.90;;;;;;5077249;28;19916;-79
2023/01/17 06:18:28;;;;;;;;;;;0.40;99.90;;;;;;5076793;28;19904;-79
2023/01/17 06:20:54;;;;;;;;;;;0.30;99.90;;;;;;5065129;28;19951;-80
2023/01/17 06:23:20;;;;;;;;;;;0.30;99.90;;;;;;5071839;28;19932;-79
2023/01/17 06:25:46;;;;;;;;;;;0.30;99.90;;;;;;5068281;28;19913;-79
2023/01/17 06:28:13;;;;;;;;;;;0.20;99.90;;;;;;5068528;28;20227;-79
2023/01/17 06:30:38;;;;;;;;;;;0.20;99.90;;;;;;5064781;28;20228;-79
2023/01/17 06:33:04;;;;;;;;;;;0.20;99.90;;;;;;5067371;28;19999;-80
2023/01/17 06:35:30;;;;;;;;;;;0.10;99.90;;;;;;5071746;28;19913;-79
2023/01/17 06:37:57;;;;;;;;;;;0.10;99.90;;;;;;5069263;28;19908;-76
2023/01/17 06:40:23;;;;;;;;;;;0.10;99.90;;;;;;5065288;28;20291;-80
2023/01/17 06:42:49;;;;;;;;;;;0.10;99.90;;;;;;5073946;28;19904;-79
2023/01/17 06:45:14;;;;;;;;;;;0.10;99.90;;;;;;5066231;28;19931;-79
2023/01/17 06:47:40;;;;;;;;;;;0.10;99.90;;;;;;5069195;28;20022;-80
2023/01/17 06:50:06;;;;;;;;;;;0.10;99.90;;;;;;5063068;28;19908;-79
2023/01/17 06:52:32;;;;;;;;;;;0.10;99.90;;;;;;5076311;28;19908;-79
2023/01/17 06:54:57;;;;;;;;;;;0.10;99.90;;;;;;5075844;28;20195;-79
2023/01/17 06:57:23;;;;;;;;;;;0.10;99.90;;;;;;5076221;28;19909;-79
2023/01/17 06:59:48;;;;;;;;;;;0.00;99.90;;;;;;5075563;28;19962;-77
2023/01/17 07:02:14;;;;;;;;;;;0.00;99.90;;;;;;5069343;28;19961;-79
2023/01/17 07:04:39;;;;;;;;;;;0.00;99.90;;;;;;5068153;28;19908;-72
2023/01/17 07:07:05;;;;;;;;;;;-0.10;99.90;;;;;;5067004;28;19908;-79
2023/01/17 07:09:30;;;;;;;;;;;-0.10;99.90;;;;;;5063506;28;19909;-80
2023/01/17 07:12:00;;;;;;;;;;;-0.10;99.90;;;;;;5074284;28;19904;-73
2023/01/17 07:14:29;;;;;;;;;;;-0.10;99.90;;;;;;5068500;28;19912;-75
2023/01/17 07:16:55;;;;;;;;;;;-0.20;99.90;;;;;;5073436;28;19955;-75
2023/01/17 07:19:21;;;;;;;;;;;-0.20;99.90;;;;;;5064224;28;19916;-80
2023/01/17 07:21:51;;;;;;;;;;;-0.20;99.90;;;;;;5068943;28;19904;-77
2023/01/17 07:24:17;;;;;;;;;;;-0.30;99.90;;;;;;5057998;28;19916;-73
2023/01/17 07:26:42;;;;;;;;;;;-0.30;99.90;;;;;;5071765;28;20291;-79
2023/01/17 07:29:08;;;;;;;;;;;-0.30;99.90;;;;;;5067460;28;19915;-79
2023/01/17 07:31:35;;;;;;;;;;;-0.30;99.90;;;;;;5066259;28;19911;-79
2023/01/17 07:34:01;;;;;;;;;;;-0.20;99.90;;;;;;5065768;28;19908;-78
2023/01/17 07:36:27;;;;;;;;;;;-0.20;99.90;;;;;;5066294;28;19951;-78
2023/01/17 07:38:53;;;;;;;;;;;-0.20;99.90;;;;;;5072731;28;20367;-79
2023/01/17 07:41:18;;;;;;;;;;;-0.30;99.90;;;;;;5070510;28;19955;-79
2023/01/17 07:43:44;;;;;;;;;;;-0.20;99.90;;;;;;5072621;28;19908;-79
2023/01/17 07:46:10;;;;;;;;;;;-0.30;99.90;;;;;;5071401;28;19912;-79
2023/01/17 07:48:35;;;;;;;;;;;-0.30;99.90;;;;;;5060396;28;19915;-80
2023/01/17 07:51:01;;;;;;;;;;;-0.40;99.90;;;;;;5069649;28;19931;-78
2023/01/17 07:53:28;;;;;;;;;;;-0.40;99.90;;;;;;5059921;28;20202;-73
2023/01/17 07:55:54;;;;;;;;;;;-0.50;99.90;;;;;;5066385;28;19909;-80
2023/01/17 07:58:19;;;;;;;;;;;-0.50;99.90;;;;;;5061699;28;19905;-82
2023/01/17 08:00:45;;;;;;;;;;;-0.60;99.90;;;;;;5062568;28;19953;-80
2023/01/17 08:03:12;;;;;;;;;;;-0.60;99.90;;;;;;5069851;28;19979;-80
2023/01/17 08:05:39;;;;;;;;;;;-0.60;99.90;;;;;;5065863;28;19911;-80
2023/01/17 08:08:04;;;;;;;;;;;-0.60;99.90;;;;;;5061162;28;19904;-80
2023/01/17 08:10:30;;;;;;;;;;;-0.60;99.90;;;;;;5064307;28;19908;-80
2023/01/17 08:12:55;;;;;;;;;;;-0.60;99.90;;;;;;5064146;28;19962;-81
2023/01/17 08:15:22;;;;;;;;;;;-0.60;99.90;;;;;;5070122;28;19958;-80
2023/01/17 08:17:51;;;;;;;;;;;-0.60;99.90;;;;;;5064340;28;19904;-72
2023/01/17 08:20:17;;;;;;;;;;;-0.60;99.90;;;;;;5063253;28;19905;-81
2023/01/17 08:22:43;;;;;;;;;;;-0.60;99.90;;;;;;5059047;28;20291;-80
2023/01/17 08:25:08;;;;;;;;;;;-0.60;99.90;;;;;;5065230;28;19912;-80
2023/01/17 08:27:34;;;;;;;;;;;-0.50;99.90;;;;;;5062791;28;19915;-81
2023/01/17 08:30:00;;;;;;;;;;;-0.50;99.90;;;;;;5064309;28;19916;-80
2023/01/17 08:32:25;;;;;;;;;;;-0.50;99.90;;;;;;5062042;28;20299;-80
2023/01/17 08:34:51;;;;;;;;;;;-0.50;99.90;;;;;;5059396;28;19992;-80
2023/01/17 08:37:16;;;;;;;;;;;-0.50;99.90;;;;;;5067713;28;19909;-73
2023/01/17 08:39:42;;;;;;;;;;;-0.50;99.90;;;;;;5069160;28;19905;-81
2023/01/17 08:42:07;;;;;;;;;;;-0.50;99.90;;;;;;5074515;28;19904;-80
2023/01/17 08:44:33;;;;;;;;;;;-0.50;99.90;;;;;;5074624;28;19908;-80
2023/01/17 08:46:59;;;;;;;;;;;-0.50;99.90;;;;;;5068917;28;19996;-80
2023/01/17 08:49:25;;;;;;;;;;;-0.50;99.90;;;;;;5072274;28;19909;-80
2023/01/17 08:51:51;;;;;;;;;;;-0.40;99.90;;;;;;5073368;28;20245;-80
2023/01/17 08:54:17;;;;;;;;;;;-0.40;99.90;;;;;;5066595;28;19908;-80
2023/01/17 08:56:43;;;;;;;;;;;-0.20;99.90;;;;;;5068126;28;20307;-80
2023/01/17 08:59:12;;;;;;;;;;;-0.10;99.90;;;;;;5078190;28;19916;-81
2023/01/17 09:01:40;;;;;;;;;;;0.00;99.90;;;;;;5078330;28;19912;-80
2023/01/17 09:04:09;;;;;;;;;;;0.10;99.90;;;;;;5073938;28;19956;-79
2023/01/17 09:06:36;;;;;;;;;;;0.20;99.90;;;;;;5073477;28;19995;-80
2023/01/17 09:09:02;;;;;;;;;;;0.30;99.90;;;;;;5077129;28;19912;-80
2023/01/17 09:11:27;;;;;;;;;;;0.30;99.90;;;;;;5073217;28;20363;-72
2023/01/17 09:13:53;;;;;;;;;;;0.30;99.90;;;;;;5067365;28;19955;-80
2023/01/17 09:16:18;;;;;;;;;;;0.40;99.90;;;;;;5063015;28;19944;-71
2023/01/17 09:18:44;;;;;;;;;;;0.50;99.90;;;;;;5066323;28;20211;-80
2023/01/17 09:21:11;;;;;;;;;;;0.50;99.90;;;;;;5078410;28;20011;-79
2023/01/17 09:23:36;;;;;;;;;;;0.60;99.90;;;;;;5078251;28;19908;-71
2023/01/17 09:26:02;;;;;;;;;;;0.60;99.90;;;;;;5077766;28;19908;-72
2023/01/17 09:28:27;;;;;;;;;;;0.60;99.90;;;;;;5063444;28;19944;-71
2023/01/17 09:30:53;;;;;;;;;;;0.60;99.90;;;;;;5068234;28;19912;-71
2023/01/17 09:33:19;;;;;;;;;;;0.60;99.90;;;;;;5075282;28;19911;-71
2023/01/17 09:35:45;;;;;;;;;;;0.50;99.90;;;;;;5077621;28;19919;-71
2023/01/17 09:38:11;;;;;;;;;;;0.60;99.90;;;;;;5077365;28;19912;-81
2023/01/17 09:40:40;;;;;;;;;;;0.60;99.90;;;;;;5077850;28;19912;-72
2023/01/17 09:43:13;;;;;;;;;;;0.60;99.90;;;;;;5077273;28;20272;-74
2023/01/17 09:45:38;;;;;;;;;;;0.60;99.90;;;;;;5076657;28;19905;-81
2023/01/17 09:48:07;;;;;;;;;;;0.70;99.90;;;;;;5076627;28;19916;-80
2023/01/17 09:50:40;;;;;;;;;;;0.70;99.90;;;;;;5077548;28;20214;-81
2023/01/17 09:53:11;;;;;;;;;;;0.70;99.90;;;;;;5078284;28;19912;-79
2023/01/17 09:55:42;;;;;;;;;;;0.80;99.90;;;;;;5077287;28;19957;-72
2023/01/17 09:58:11;;;;;;;;;;;0.80;99.90;;;;;;5074988;28;19904;-79
2023/01/17 10:00:36;;;;;;;;;;;0.80;99.90;;;;;;5076963;28;19944;-73
2023/01/17 10:03:02;;;;;;;;;;;0.90;99.90;;;;;;5077642;28;19954;-71
2023/01/17 10:05:35;;;;;;;;;;;0.90;99.90;;;;;;5076805;28;20192;-79
2023/01/17 10:08:07;;;;;;;;;;;0.90;99.90;;;;;;5077353;28;20353;-79
2023/01/17 10:10:32;;;;;;;;;;;0.90;99.90;;;;;;5076092;28;19958;-71
2023/01/17 10:13:17;;;;;;;;;;;0.90;99.90;;;;;;5062836;28;19909;-72
2023/01/17 10:15:56;;;;;;;;;;;0.90;99.90;;;;;;5075965;28;19915;-71
2023/01/17 10:18:23;;;;;;;;;;;0.90;99.90;;;;;;5056913;28;19920;-80
2023/01/17 10:21:07;;;;;;;;;;;0.90;99.90;;;;;;5056972;28;19995;-80
2023/01/17 10:23:35;;;;;;;;;;;0.90;99.90;;;;;;5070655;28;19908;-80
2023/01/17 10:26:02;;;;;;;;;;;0.90;99.90;;;;;;5064639;28;19931;-80
2023/01/17 10:28:30;;;;;;;;;;;0.90;99.90;;;;;;5071133;28;20189;-72
2023/01/17 10:31:31;;;;;;;;;;;0.90;99.90;;;;;;5067943;28;19934;-75
2023/01/17 10:34:07;;;;;;;;;;;1.00;99.90;;;;;;5014438;28;19993;-72
2023/01/17 10:36:36;;;;;;;;;;;1.10;99.90;;;;;;5014279;28;20307;-81
2023/01/17 10:39:34;;;;;;;;;;;1.30;99.90;;;;;;5014886;28;19948;-79
2023/01/17 10:42:11;;;;;;;;;;;1.40;99.90;;;;;;4968952;28;20047;-79
2023/01/17 10:44:44;;;;;;;;;;;1.70;99.90;;;;;;4942880;28;20369;-72
2023/01/17 10:47:10;;;;;;;;;;;1.70;99.90;;;;;;4959545;28;19914;-72
2023/01/17 10:49:41;;;;;;;;;;;1.60;99.90;;;;;;4967150;28;20297;-81
2023/01/17 10:52:21;;;;;;;;;;;1.60;99.90;;;;;;4963838;28;20013;-73
2023/01/17 10:54:48;;;;;;;;;;;1.50;99.90;;;;;;4968613;28;20298;-72
2023/01/17 10:57:16;;;;;;;;;;;1.40;99.90;;;;;;4966581;28;19993;-81
2023/01/17 10:59:42;;;;;;;;;;;1.40;99.90;;;;;;4961628;28;19936;-71
2023/01/17 11:02:17;;;;;;;;;;;1.30;99.90;;;;;;4966262;28;20019;-81
2023/01/17 11:04:45;;;;;;;;;;;1.30;99.90;;;;;;4943829;28;19906;-83
2023/01/17 11:07:11;;;;;;;;;;;1.50;99.90;;;;;;4975760;28;20205;-72
2023/01/17 11:09:46;;;;;;;;;;;1.70;99.90;;;;;;4992954;28;19920;-72
2023/01/17 11:12:29;;;;;;;;;;;1.90;99.90;;;;;;4997312;28;19917;-82
2023/01/17 11:15:02;;;;;;;;;;;2.10;99.90;;;;;;5006305;28;20259;-83
2023/01/17 11:17:28;;;;;;;;;;;2.30;99.90;;;;;;5029575;28;19915;-82
2023/01/17 11:20:05;;;;;;;;;;;2.40;99.90;;;;;;5060527;28;19926;-81
2023/01/17 11:22:31;;;;;;;;;;;2.50;99.90;;;;;;5067510;28;19904;-71
2023/01/17 11:24:58;;;;;;;;;;;2.70;99.90;;;;;;5063710;28;19908;-76
2023/01/17 11:27:24;;;;;;;;;;;2.80;99.90;;;;;;5060831;28;20006;-80
2023/01/17 11:30:01;;;;;;;;;;;2.90;99.90;;;;;;5065875;28;19908;-79
2023/01/17 11:32:29;;;;;;;;;;;3.00;99.90;;;;;;5066563;28;19904;-72
2023/01/17 11:35:14;;;;;;;;;;;3.10;99.90;;;;;;5070627;28;19919;-80
2023/01/17 11:37:59;;;;;;;;;;;3.20;99.90;;;;;;5062780;28;19952;-72
2023/01/17 11:40:34;;;;;;;;;;;3.30;99.90;;;;;;5060954;28;19904;-82
2023/01/17 11:43:00;;;;;;;;;;;3.40;99.90;;;;;;5068040;28;19959;-83
2023/01/17 11:45:27;;;;;;;;;;;3.40;99.90;;;;;;5063266;28;19909;-81
2023/01/17 11:48:12;;;;;;;;;;;3.50;99.90;;;;;;5061203;28;20192;-81
2023/01/17 11:50:53;;;;;;;;;;;3.60;99.90;;;;;;5070745;28;20223;-72
2023/01/17 11:53:22;;;;;;;;;;;3.70;99.90;;;;;;5066382;28;20011;-73
2023/01/17 11:55:54;;;;;;;;;;;3.80;99.90;;;;;;5064390;28;19909;-81
2023/01/17 11:58:20;;;;;;;;;;;3.90;99.90;;;;;;5067691;28;20001;-82
2023/01/17 12:00:49;;;;;;;;;;;3.90;99.90;;;;;;5059513;28;20307;-82
2023/01/17 12:03:14;;;;;;;;;;;4.00;99.90;;;;;;5058597;28;20016;-82
2023/01/17 12:05:43;;;;;;;;;;;4.00;99.90;;;;;;5058936;28;19999;-80
2023/01/17 12:08:16;;;;;;;;;;;4.10;99.90;;;;;;5063982;28;19904;-81
2023/01/17 12:10:47;;;;;;;;;;;4.10;99.90;;;;;;5059370;28;19911;-81
2023/01/17 12:16:31;;;;;;;;;;;4.20;99.90;;;;;;5063490;28;19939;-83
2023/01/17 12:18:57;;;;;;;;;;;4.30;99.90;;;;;;5059816;28;19905;-82
2023/01/17 12:21:28;;;;;;;;;;;4.30;99.90;;;;;;5061639;28;19970;-85
2023/01/17 12:23:54;;;;;;;;;;;4.40;99.90;;;;;;5065683;28;20222;-82
2023/01/17 12:26:32;;;;;;;;;;;4.40;99.90;;;;;;5061337;28;19919;-83
2023/01/17 12:29:04;;;;;;;;;;;4.50;99.90;;;;;;5063574;28;19911;-72
2023/01/17 12:31:45;;;;;;;;;;;4.60;99.90;;;;;;5073473;28;19908;-83
2023/01/17 12:34:22;;;;;;;;;;;4.70;99.90;;;;;;5061568;28;19904;-82
2023/01/17 12:37:11;;;;;;;;;;;4.80;99.90;;;;;;5063005;28;19915;-82
2023/01/17 12:39:42;;;;;;;;;;;4.90;99.90;;;;;;5055417;28;19915;-82
2023/01/17 12:42:13;;;;;;;;;;;4.90;99.90;;;;;;5062461;28;19909;-74
2023/01/17 12:45:01;;;;;;;;;;;4.90;99.90;;;;;;5055568;28;19909;-80
2023/01/17 12:47:28;;;;;;;;;;;4.90;99.90;;;;;;5062146;28;20371;-79
2023/01/17 12:50:20;;;;;;;;;;;5.00;99.90;;;;;;5060661;28;19932;-85
2023/01/17 12:52:58;;;;;;;;;;;5.10;99.90;;;;;;5057275;28;19956;-82
2023/01/17 12:55:50;;;;;;;;;;;5.10;99.90;;;;;;5060622;28;19908;-84
2023/01/17 12:58:23;;;;;;;;;;;5.10;99.90;;;;;;5061905;28;19919;-83
2023/01/17 13:00:53;;;;;;;;;;;5.10;99.90;;;;;;5067289;28;20229;-83
2023/01/17 13:03:23;;;;;;;;;;;5.00;99.90;;;;;;5071438;28;19904;-86
2023/01/17 13:05:50;;;;;;;;;;;5.00;99.90;;;;;;5067484;28;19905;-82
2023/01/17 13:08:37;;;;;;;;;;;4.90;99.90;;;;;;5062596;28;19915;-85
2023/01/17 13:11:03;;;;;;;;;;;4.90;99.90;;;;;;5056106;28;19909;-82
2023/01/17 13:13:29;;;;;;;;;;;5.00;99.90;;;;;;5060732;28;19904;-79
2023/01/17 13:16:18;;;;;;;;;;;4.80;99.90;;;;;;5059765;28;19948;-83
2023/01/17 13:18:47;;;;;;;;;;;4.70;99.90;;;;;;5060019;28;20286;-84
2023/01/17 13:21:29;;;;;;;;;;;4.60;99.90;;;;;;5060959;28;19916;-85
2023/01/17 13:23:58;;;;;;;;;;;4.60;99.90;;;;;;5056128;28;19991;-83
2023/01/17 13:26:35;;;;;;;;;;;4.70;99.90;;;;;;5067433;28;19958;-81
2023/01/17 13:29:15;;;;;;;;;;;4.80;99.90;;;;;;5067924;28;19911;-85
2023/01/17 13:31:40;;;;;;;;;;;4.80;99.90;;;;;;5060309;28;19916;-82
2023/01/17 13:34:35;;;;;;;;;;;4.90;99.90;;;;;;5067594;28;19912;-82
2023/01/17 13:37:16;;;;;;;;;;;4.90;99.90;;;;;;5066103;28;19908;-84
2023/01/17 13:40:04;;;;;;;;;;;4.90;99.90;;;;;;5061909;28;19958;-84
2023/01/17 13:42:29;;;;;;;;;;;4.90;99.90;;;;;;5068563;28;19970;-83
2023/01/17 13:44:56;;;;;;;;;;;4.90;99.90;;;;;;5073820;28;20291;-86
2023/01/17 13:47:23;;;;;;;;;;;5.00;99.90;;;;;;5078266;28;20295;-83
2023/01/17 13:49:50;;;;;;;;;;;4.90;99.90;;;;;;5076576;28;19951;-80
2023/01/17 13:52:18;;;;;;;;;;;4.90;99.90;;;;;;5077031;28;19904;-83
2023/01/17 13:54:44;;;;;;;;;;;4.90;99.90;;;;;;5078000;28;19911;-83
2023/01/17 13:57:22;;;;;;;;;;;4.90;99.90;;;;;;5072051;28;19917;-72
2023/01/17 13:59:48;;;;;;;;;;;4.90;99.90;;;;;;5077565;28;19916;-83
2023/01/17 14:02:32;;;;;;;;;;;5.10;99.90;;;;;;5077720;28;20337;-84
2023/01/17 14:05:22;;;;;;;;;;;5.20;99.90;;;;;;5077683;28;19904;-83
2023/01/17 14:07:47;;;;;;;;;;;5.30;99.90;;;;;;5076428;28;19911;-81
2023/01/17 14:10:28;;;;;;;;;;;5.20;99.90;;;;;;5077703;28;19908;-84
2023/01/17 14:12:54;;;;;;;;;;;5.30;99.90;;;;;;5062055;28;19909;-84
2023/01/17 14:15:21;;;;;;;;;;;5.30;99.90;;;;;;5069670;28;20218;-82
2023/01/17 14:17:49;;;;;;;;;;;5.20;99.90;;;;;;5073507;28;19919;-83
2023/01/17 14:20:16;;;;;;;;;;;5.10;99.90;;;;;;5057981;28;19978;-83
2023/01/17 14:22:50;;;;;;;;;;;5.00;99.90;;;;;;5056815;28;19955;-85
2023/01/17 14:25:17;;;;;;;;;;;4.80;99.90;;;;;;5056996;28;19952;-82
2023/01/17 14:27:48;;;;;;;;;;;4.60;99.90;;;;;;5068393;28;19954;-84
2023/01/17 14:30:16;;;;;;;;;;;4.40;99.90;;;;;;5072400;28;19908;-83
2023/01/17 14:32:57;;;;;;;;;;;4.20;99.90;;;;;;5068389;28;19995;-83
2023/01/17 14:35:25;;;;;;;;;;;4.10;99.90;;;;;;5062371;28;19932;-84
2023/01/17 14:37:52;;;;;;;;;;;4.00;99.90;;;;;;5063164;28;20337;-85
2023/01/17 14:40:24;;;;;;;;;;;3.90;99.90;;;;;;5063346;28;19940;-83
2023/01/17 14:43:01;;;;;;;;;;;3.90;99.90;;;;;;5063232;28;20291;-83
2023/01/17 14:45:28;;;;;;;;;;;3.90;99.90;;;;;;5070454;28;19914;-81
2023/01/17 14:47:55;;;;;;;;;;;3.90;99.90;;;;;;5066091;28;19909;-84
2023/01/17 14:50:23;;;;;;;;;;;3.90;99.90;;;;;;5065488;28;20254;-82
2023/01/17 14:53:09;;;;;;;;;;;4.00;99.90;;;;;;5066611;28;19931;-83
2023/01/17 14:55:34;;;;;;;;;;;4.00;99.90;;;;;;5058097;28;19974;-83
2023/01/17 14:58:00;;;;;;;;;;;3.90;99.90;;;;;;5077087;28;20299;-83
2023/01/17 15:00:32;;;;;;;;;;;3.90;99.90;;;;;;5056082;28;20353;-81
2023/01/17 15:02:58;;;;;;;;;;;3.80;99.90;;;;;;5052472;28;19935;-82
2023/01/17 15:05:25;;;;;;;;;;;3.70;99.90;;;;;;5047587;28;20191;-83
2023/01/17 15:07:52;;;;;;;;;;;3.60;99.90;;;;;;5046309;28;19959;-82
2023/01/17 15:10:19;;;;;;;;;;;3.50;99.90;;;;;;5044297;28;19924;-83
2023/01/17 15:12:48;;;;;;;;;;;3.50;99.90;;;;;;5043824;28;19951;-84
2023/01/17 15:15:31;;;;;;;;;;;3.40;99.90;;;;;;5048113;28;19905;-83
2023/01/17 15:18:28;;;;;;;;;;;3.30;99.90;;;;;;5034863;28;19959;-74
2023/01/17 15:20:55;;;;;;;;;;;3.10;99.90;;;;;;5013341;28;19976;-83
2023/01/17 15:23:22;;;;;;;;;;;3.00;99.90;;;;;;5013748;28;19991;-83
2023/01/17 15:25:48;;;;;;;;;;;2.90;99.90;;;;;;5013973;28;20316;-81
2023/01/17 15:28:14;;;;;;;;;;;2.80;99.90;;;;;;5013709;28;19905;-83
2023/01/17 15:30:58;;;;;;;;;;;2.70;99.90;;;;;;5013872;28;19913;-84
2023/01/17 15:33:23;;;;;;;;;;;2.60;99.90;;;;;;4996270;28;19909;-83
2023/01/17 15:35:57;;;;;;;;;;;2.40;99.90;;;;;;4997709;28;19955;-83
2023/01/17 15:38:22;;;;;;;;;;;2.30;99.90;;;;;;5013895;28;19912;-84
2023/01/17 15:40:48;;;;;;;;;;;2.20;99.90;;;;;;5014085;28;19905;-83
2023/01/17 15:43:18;;;;;;;;;;;2.10;99.90;;;;;;4997816;28;20327;-83
2023/01/17 15:45:54;;;;;;;;;;;2.00;99.90;;;;;;5013740;28;19953;-83
2023/01/17 15:48:39;;;;;;;;;;;2.00;99.90;;;;;;5013880;28;19916;-82
2023/01/17 15:51:06;;;;;;;;;;;1.90;99.90;;;;;;5014013;28;19945;-86
2023/01/17 15:53:33;;;;;;;;;;;1.80;99.90;;;;;;5013343;28;19939;-84
2023/01/17 15:55:59;;;;;;;;;;;1.80;99.90;;;;;;5012552;28;19909;-84
2023/01/17 15:58:26;;;;;;;;;;;1.80;99.90;;;;;;5048959;28;19923;-84
2023/01/17 16:00:52;;;;;;;;;;;1.60;99.90;;;;;;5063997;28;20027;-83
2023/01/17 16:03:28;;;;;;;;;;;1.60;99.90;;;;;;5064993;28;20004;-83